createdAt,value
2023-02-04T00:00:09.903Z,69.30
2023-02-04T00:02:38.336Z,69.22
2023-02-04T00:05:05.302Z,69.00
2023-02-04T00:07:32.035Z,69.28
2023-02-04T00:09:58.742Z,69.74
2023-02-04T00:12:25.486Z,69.45
2023-02-04T00:14:52.200Z,69.16
2023-02-04T00:17:18.903Z,69.32
2023-02-04T00:19:45.643Z,69.32
2023-02-04T00:22:12.300Z,69.56
2023-02-04T00:24:39.014Z,69.30
2023-02-04T00:27:06.905Z,69.09
2023-02-04T00:29:33.635Z,69.43
2023-02-04T00:32:00.710Z,70.00
2023-02-04T00:34:27.534Z,69.41
2023-02-04T00:36:54.176Z,69.51
2023-02-04T00:39:20.874Z,69.45
2023-02-04T00:41:47.597Z,69.24
2023-02-04T00:44:14.383Z,69.24
2023-02-04T00:46:42.784Z,69.63
2023-02-04T00:49:13.005Z,69.23
2023-02-04T00:51:40.836Z,69.65
2023-02-04T00:54:07.968Z,69.17
2023-02-04T00:56:34.810Z,69.89
2023-02-04T00:59:01.672Z,69.51
2023-02-04T01:01:28.410Z,69.95
2023-02-04T01:03:55.130Z,69.92
2023-02-04T01:06:21.858Z,69.97
2023-02-04T01:08:48.547Z,69.60
2023-02-04T01:11:15.207Z,69.94
2023-02-04T01:13:42.121Z,70.13
2023-02-04T01:16:09.353Z,69.70
2023-02-04T01:18:36.451Z,69.83
2023-02-04T01:21:03.245Z,69.35
2023-02-04T01:23:29.985Z,69.90
2023-02-04T01:25:56.749Z,70.21
2023-02-04T01:28:23.385Z,70.04
2023-02-04T01:30:50.096Z,70.17
2023-02-04T01:33:17.464Z,69.46
2023-02-04T01:35:44.181Z,69.58
2023-02-04T01:38:10.949Z,69.99
2023-02-04T01:40:37.851Z,69.68
2023-02-04T01:43:05.419Z,70.21
2023-02-04T01:45:34.644Z,69.94
2023-02-04T01:48:04.388Z,69.76
2023-02-04T01:50:31.722Z,69.58
2023-02-04T01:52:59.270Z,69.55
2023-02-04T01:55:29.372Z,70.00
2023-02-04T01:57:58.833Z,70.08
2023-02-04T02:00:32.646Z,69.69
2023-02-04T02:03:00.609Z,69.82
2023-02-04T02:05:32.185Z,70.14
2023-02-04T02:08:02.171Z,70.16
2023-02-04T02:10:29.770Z,70.09
2023-02-04T02:12:57.638Z,70.19
2023-02-04T02:15:25.011Z,69.94
2023-02-04T02:17:53.834Z,70.35
2023-02-04T02:20:22.491Z,70.33
2023-02-04T02:23:12.834Z,70.07
2023-02-04T02:25:39.787Z,70.32
2023-02-04T02:28:11.291Z,70.13
2023-02-04T02:30:38.477Z,70.43
2023-02-04T02:33:06.422Z,70.26
2023-02-04T02:35:33.929Z,70.37
2023-02-04T02:38:00.727Z,70.48
2023-02-04T02:40:27.570Z,70.57
2023-02-04T02:42:54.328Z,70.50
2023-02-04T02:45:25.316Z,70.46
2023-02-04T02:47:52.538Z,70.55
2023-02-04T02:50:26.017Z,70.24
2023-02-04T02:52:53.749Z,70.44
2023-02-04T02:55:23.334Z,70.47
2023-02-04T02:57:51.323Z,70.69
2023-02-04T03:00:25.998Z,70.76
2023-02-04T03:03:05.392Z,70.86
2023-02-04T03:05:36.566Z,70.78
2023-02-04T03:08:03.957Z,70.52
2023-02-04T03:10:31.388Z,70.25
2023-02-04T03:12:59.793Z,70.81
2023-02-04T03:15:26.881Z,70.94
2023-02-04T03:17:56.619Z,70.44
2023-02-04T03:20:25.556Z,70.89
2023-02-04T03:22:53.056Z,70.50
2023-02-04T03:25:20.641Z,70.78
2023-02-04T03:27:47.656Z,70.88
2023-02-04T03:30:14.415Z,70.45
2023-02-04T03:32:41.841Z,70.74
2023-02-04T03:35:08.720Z,70.90
2023-02-04T03:37:35.410Z,70.93
2023-02-04T03:40:02.101Z,70.77
2023-02-04T03:42:28.751Z,70.76
2023-02-04T03:44:55.437Z,71.28
2023-02-04T03:47:22.081Z,70.33
2023-02-04T03:49:48.800Z,70.61
2023-02-04T03:52:15.466Z,71.17
2023-02-04T03:54:42.195Z,70.93
2023-02-04T03:57:08.913Z,71.37
2023-02-04T03:59:35.628Z,70.79
2023-02-04T04:02:02.305Z,71.18
2023-02-04T04:04:29.034Z,71.18
2023-02-04T04:06:55.748Z,71.34
2023-02-04T04:09:22.429Z,71.14
2023-02-04T04:11:49.082Z,71.37
2023-02-04T04:14:16.021Z,71.21
2023-02-04T04:16:42.703Z,71.50
2023-02-04T04:19:09.396Z,71.50
2023-02-04T04:21:36.090Z,71.50
2023-02-04T04:24:02.814Z,71.21
2023-02-04T04:26:29.450Z,71.14
2023-02-04T04:28:56.112Z,71.76
2023-02-04T04:31:22.863Z,72.00
2023-02-04T04:33:49.634Z,71.42
2023-02-04T04:36:16.310Z,71.03
2023-02-04T04:38:42.960Z,71.10
2023-02-04T04:41:09.713Z,71.33
2023-02-04T04:43:36.360Z,71.40
2023-02-04T04:46:03.022Z,71.40
2023-02-04T04:48:29.750Z,71.96
2023-02-04T04:50:56.455Z,71.32
2023-02-04T04:53:23.114Z,71.77
2023-02-04T04:55:49.776Z,71.32
2023-02-04T04:58:16.469Z,71.50
2023-02-04T05:00:43.270Z,71.57
2023-02-04T05:03:09.952Z,71.62
2023-02-04T05:05:40.046Z,71.69
2023-02-04T05:08:13.009Z,71.54
2023-02-04T05:10:41.182Z,71.51
2023-02-04T05:13:07.928Z,71.55
2023-02-04T05:15:34.810Z,71.61
2023-02-04T05:18:01.714Z,71.71
2023-02-04T05:20:28.394Z,71.37
2023-02-04T05:23:01.292Z,71.61
2023-02-04T05:25:29.019Z,71.64
2023-02-04T05:27:55.911Z,71.47
2023-02-04T05:30:22.778Z,72.01
2023-02-04T05:32:49.654Z,71.16
2023-02-04T05:35:16.473Z,71.42
2023-02-04T05:37:43.172Z,71.96
2023-02-04T05:40:10.184Z,71.68
2023-02-04T05:42:36.832Z,71.32
2023-02-04T05:45:04.729Z,72.15
2023-02-04T05:47:31.400Z,71.64
2023-02-04T05:49:58.061Z,72.18
2023-02-04T05:52:24.845Z,72.18
2023-02-04T05:54:51.516Z,71.91
2023-02-04T05:57:18.158Z,71.90
2023-02-04T05:59:45.435Z,71.95
2023-02-04T06:02:12.137Z,71.94
2023-02-04T06:04:38.858Z,72.31
2023-02-04T06:07:05.589Z,71.60
2023-02-04T06:09:32.281Z,71.99
2023-02-04T06:11:59.006Z,72.21
2023-02-04T06:14:25.678Z,71.90
2023-02-04T06:16:52.377Z,71.94
2023-02-04T06:19:19.086Z,72.47
2023-02-04T06:21:45.741Z,72.35
2023-02-04T06:24:12.392Z,72.02
2023-02-04T06:26:39.122Z,71.99
2023-02-04T06:29:05.887Z,71.95
2023-02-04T06:31:32.752Z,72.04
2023-02-04T06:33:59.531Z,72.40
2023-02-04T06:36:26.271Z,71.79
2023-02-04T06:38:52.913Z,71.79
2023-02-04T06:41:19.593Z,72.07
2023-02-04T06:43:46.299Z,72.48
2023-02-04T06:46:12.990Z,72.01
2023-02-04T06:48:39.687Z,71.92
2023-02-04T06:51:06.349Z,72.07
2023-02-04T06:53:33.187Z,72.14
2023-02-04T06:55:59.856Z,72.29
2023-02-04T06:58:26.512Z,72.75
2023-02-04T07:00:53.190Z,73.36
2023-02-04T07:03:19.873Z,73.07
2023-02-04T07:05:46.543Z,73.34
2023-02-04T07:08:13.477Z,73.60
2023-02-04T07:10:40.147Z,73.17
2023-02-04T07:13:06.816Z,74.12
2023-02-04T07:15:33.495Z,73.80
2023-02-04T07:18:00.423Z,74.00
2023-02-04T07:20:27.143Z,73.96
2023-02-04T07:22:53.847Z,73.21
2023-02-04T07:25:20.477Z,73.75
2023-02-04T07:27:47.185Z,74.33
2023-02-04T07:30:14.160Z,74.24
2023-02-04T07:32:40.894Z,73.78
2023-02-04T07:35:07.888Z,74.17
2023-02-04T07:37:34.594Z,74.72
2023-02-04T07:40:01.228Z,73.78
2023-02-04T07:42:28.423Z,73.99
2023-02-04T07:44:55.112Z,74.16
2023-02-04T07:47:21.784Z,74.54
2023-02-04T07:49:48.594Z,74.58
2023-02-04T07:52:15.281Z,74.28
2023-02-04T07:54:42.010Z,74.65
2023-02-04T07:57:08.756Z,74.94
2023-02-04T07:59:35.418Z,74.16
2023-02-04T08:02:02.069Z,74.83
2023-02-04T08:04:28.721Z,74.62
2023-02-04T08:06:55.449Z,73.80
2023-02-04T08:09:22.122Z,74.54
2023-02-04T08:11:48.772Z,73.93
2023-02-04T08:14:15.562Z,74.16
2023-02-04T08:16:42.259Z,74.15
2023-02-04T08:19:08.911Z,74.12
2023-02-04T08:21:36.502Z,74.58
2023-02-04T08:24:03.268Z,74.16
2023-02-04T08:26:29.928Z,73.83
2023-02-04T08:28:56.638Z,74.32
2023-02-04T08:31:23.427Z,74.24
2023-02-04T08:33:50.172Z,74.48
2023-02-04T08:36:16.853Z,74.14
2023-02-04T08:38:44.682Z,73.81
2023-02-04T08:41:11.587Z,73.82
2023-02-04T08:43:38.348Z,73.99
2023-02-04T08:46:05.594Z,74.04
2023-02-04T08:48:32.317Z,73.81
2023-02-04T08:50:59.244Z,74.09
2023-02-04T08:53:25.943Z,74.41
2023-02-04T08:55:52.605Z,74.17
2023-02-04T08:58:19.263Z,74.60
2023-02-04T09:00:45.924Z,73.82
2023-02-04T09:03:12.629Z,73.60
2023-02-04T09:05:39.330Z,74.13
2023-02-04T09:08:06.128Z,73.98
2023-02-04T09:10:33.097Z,73.83
2023-02-04T09:13:00.059Z,73.56
2023-02-04T09:15:26.900Z,74.39
2023-02-04T09:17:55.705Z,73.63
2023-02-04T09:20:22.365Z,74.28
2023-02-04T09:22:50.348Z,73.88
2023-02-04T09:25:17.170Z,73.88
2023-02-04T09:27:43.851Z,73.61
2023-02-04T09:30:11.141Z,74.06
2023-02-04T09:32:37.794Z,73.79
2023-02-04T09:35:04.838Z,73.62
2023-02-04T09:37:31.527Z,73.52
2023-02-04T09:39:58.177Z,73.87
2023-02-04T09:42:26.376Z,73.73
2023-02-04T09:44:53.371Z,73.64
2023-02-04T09:47:22.835Z,73.71
2023-02-04T09:49:49.791Z,73.62
2023-02-04T09:52:18.524Z,73.35
2023-02-04T09:54:45.561Z,73.64
2023-02-04T09:57:18.005Z,73.93
2023-02-04T09:59:45.557Z,73.90
2023-02-04T10:02:23.185Z,73.58
2023-02-04T10:04:52.488Z,73.09
2023-02-04T10:07:24.241Z,73.50
2023-02-04T10:09:52.897Z,73.24
2023-02-04T10:12:20.278Z,73.35
2023-02-04T10:14:47.166Z,72.77
2023-02-04T10:17:20.168Z,72.72
2023-02-04T10:19:47.056Z,72.80
2023-02-04T10:22:22.315Z,72.14
2023-02-04T10:24:49.045Z,72.79
2023-02-04T10:27:16.480Z,72.67
2023-02-04T10:29:54.797Z,72.62
2023-02-04T10:32:30.943Z,72.69
2023-02-04T10:35:02.094Z,72.72
2023-02-04T10:37:29.704Z,72.36
2023-02-04T10:39:56.385Z,72.64
2023-02-04T10:42:28.668Z,72.58
2023-02-04T10:44:55.717Z,72.91
2023-02-04T10:47:30.721Z,72.05
2023-02-04T10:50:18.320Z,72.18
2023-02-04T10:52:49.784Z,72.53
2023-02-04T10:55:24.304Z,72.12
2023-02-04T10:57:53.681Z,72.26
2023-02-04T11:00:25.209Z,72.65
2023-02-04T11:03:04.075Z,72.40
2023-02-04T11:05:35.940Z,72.20
2023-02-04T11:08:17.054Z,71.80
2023-02-04T11:10:43.825Z,71.83
2023-02-04T11:13:22.221Z,72.15
2023-02-04T11:15:51.263Z,72.31
2023-02-04T11:18:21.023Z,72.24
2023-02-04T11:20:49.453Z,71.97
2023-02-04T11:23:32.411Z,71.63
2023-02-04T11:26:09.736Z,72.24
2023-02-04T11:28:40.774Z,71.64
2023-02-04T11:31:21.693Z,71.81
2023-02-04T11:33:50.284Z,71.41
2023-02-04T11:36:18.030Z,71.58
2023-02-04T11:38:50.134Z,71.91
2023-02-04T11:41:29.347Z,71.77
2023-02-04T11:43:57.859Z,71.47
2023-02-04T11:46:27.071Z,71.67
2023-02-04T11:48:55.914Z,70.98
2023-02-04T11:51:31.355Z,71.39
2023-02-04T11:53:58.135Z,71.54
2023-02-04T11:56:29.548Z,71.54
2023-02-04T11:59:02.260Z,71.68
2023-02-04T12:01:34.031Z,71.39
2023-02-04T12:04:03.646Z,71.89
2023-02-04T12:06:33.818Z,71.29
2023-02-04T12:09:06.794Z,71.26
2023-02-04T12:11:33.726Z,70.94
2023-02-04T12:14:12.890Z,71.57
2023-02-04T12:16:55.561Z,70.86
2023-02-04T12:19:22.650Z,71.72
2023-02-04T12:21:49.336Z,71.37
2023-02-04T12:24:16.018Z,71.80
2023-02-04T12:26:42.690Z,71.56
2023-02-04T12:29:09.604Z,71.09
2023-02-04T12:31:36.455Z,70.96
2023-02-04T12:34:03.298Z,71.38
2023-02-04T12:36:29.977Z,71.20
2023-02-04T12:38:58.905Z,71.28
2023-02-04T12:41:26.253Z,70.94
2023-02-04T12:43:55.065Z,70.92
2023-02-04T12:46:22.047Z,70.80
2023-02-04T12:48:49.021Z,70.50
2023-02-04T12:51:15.832Z,70.29
2023-02-04T12:53:42.484Z,70.38
2023-02-04T12:56:09.185Z,69.96
2023-02-04T12:58:35.875Z,70.01
2023-02-04T13:01:04.297Z,70.20
2023-02-04T13:03:31.505Z,70.35
2023-02-04T13:05:58.253Z,69.94
2023-02-04T13:08:24.966Z,70.04
2023-02-04T13:10:52.140Z,70.30
2023-02-04T13:13:19.775Z,69.69
2023-02-04T13:15:46.864Z,69.59
2023-02-04T13:18:13.600Z,70.03
2023-02-04T13:20:40.435Z,69.61
2023-02-04T13:23:07.180Z,70.11
2023-02-04T13:25:34.110Z,70.18
2023-02-04T13:28:01.080Z,70.05
2023-02-04T13:30:27.816Z,69.79
2023-02-04T13:32:54.551Z,69.92
2023-02-04T13:35:21.235Z,70.14
2023-02-04T13:37:48.138Z,70.17
2023-02-04T13:40:14.864Z,70.15
2023-02-04T13:42:41.557Z,69.74
2023-02-04T13:45:12.367Z,70.00
2023-02-04T13:47:39.741Z,69.94
2023-02-04T13:50:07.119Z,70.05
2023-02-04T13:52:34.588Z,69.88
2023-02-04T13:55:01.448Z,70.26
2023-02-04T13:57:28.289Z,69.93
2023-02-04T13:59:54.947Z,69.51
2023-02-04T14:02:24.023Z,69.43
2023-02-04T14:04:51.368Z,69.71
2023-02-04T14:07:18.030Z,69.47
2023-02-04T14:09:44.697Z,69.46
2023-02-04T14:12:11.345Z,69.46
2023-02-04T14:14:38.000Z,69.47
2023-02-04T14:17:04.678Z,69.86
2023-02-04T14:19:31.447Z,69.57
2023-02-04T14:21:58.626Z,69.80
2023-02-04T14:24:25.479Z,69.18
2023-02-04T14:26:52.238Z,69.69
2023-02-04T14:29:18.973Z,69.59
2023-02-04T14:31:45.683Z,69.38
2023-02-04T14:34:12.425Z,69.40
2023-02-04T14:36:39.282Z,69.77
2023-02-04T14:39:05.957Z,69.44
2023-02-04T14:41:32.651Z,69.58
2023-02-04T14:43:59.364Z,69.58
2023-02-04T14:46:26.171Z,69.47
2023-02-04T14:48:52.958Z,69.81
2023-02-04T14:51:19.735Z,69.83
2023-02-04T14:53:48.758Z,69.31
2023-02-04T14:56:16.257Z,69.28
2023-02-04T14:58:43.055Z,69.28
2023-02-04T15:01:09.829Z,69.63
2023-02-04T15:03:36.983Z,69.51
2023-02-04T15:06:03.964Z,69.79
2023-02-04T15:08:32.847Z,69.36
2023-02-04T15:10:59.539Z,69.59
2023-02-04T15:13:27.952Z,69.47
2023-02-04T15:15:54.615Z,69.47
2023-02-04T15:18:21.699Z,69.75
2023-02-04T15:20:48.456Z,69.97
2023-02-04T15:23:15.261Z,69.73
2023-02-04T15:25:42.019Z,69.41
2023-02-04T15:28:11.678Z,69.90
2023-02-04T15:30:39.127Z,69.74
2023-02-04T15:33:05.882Z,69.76
2023-02-04T15:35:32.553Z,69.61
2023-02-04T15:37:59.479Z,70.15
2023-02-04T15:40:29.982Z,70.02
2023-02-04T15:42:56.805Z,69.44
2023-02-04T15:45:23.693Z,69.80
2023-02-04T15:47:50.655Z,69.73
2023-02-04T15:50:17.805Z,70.15
2023-02-04T15:52:44.791Z,69.75
2023-02-04T15:55:11.478Z,70.10
2023-02-04T15:57:38.598Z,70.14
2023-02-04T16:00:06.770Z,70.06
2023-02-04T16:02:33.608Z,70.16
2023-02-04T16:05:00.323Z,70.35
2023-02-04T16:07:27.264Z,70.03
2023-02-04T16:09:53.988Z,70.15
2023-02-04T16:12:20.629Z,70.08
2023-02-04T16:14:47.307Z,69.88
2023-02-04T16:17:13.976Z,69.52
2023-02-04T16:19:40.744Z,69.57
2023-02-04T16:22:07.534Z,69.43
2023-02-04T16:24:34.775Z,69.36
2023-02-04T16:27:01.465Z,69.59
2023-02-04T16:29:28.146Z,69.61
2023-02-04T16:31:55.645Z,69.87
2023-02-04T16:34:22.380Z,69.53
2023-02-04T16:36:49.043Z,69.85
2023-02-04T16:39:16.161Z,69.31
2023-02-04T16:41:43.285Z,69.20
2023-02-04T16:44:09.941Z,69.86
2023-02-04T16:46:36.654Z,69.35
2023-02-04T16:49:05.069Z,69.20
2023-02-04T16:51:31.826Z,69.25
2023-02-04T16:53:58.510Z,69.36
2023-02-04T16:56:27.172Z,69.47
2023-02-04T16:58:53.858Z,69.72
2023-02-04T17:01:20.557Z,69.52
2023-02-04T17:03:47.218Z,69.25
2023-02-04T17:06:16.474Z,69.82
2023-02-04T17:08:43.393Z,69.45
2023-02-04T17:11:28.705Z,69.32
2023-02-04T17:13:56.530Z,69.91
2023-02-04T17:16:23.269Z,69.67
2023-02-04T17:18:50.040Z,69.81
2023-02-04T17:21:17.166Z,69.83
2023-02-04T17:23:44.758Z,70.11
2023-02-04T17:26:11.444Z,70.55
2023-02-04T17:28:38.121Z,69.68
2023-02-04T17:31:05.567Z,69.92
2023-02-04T17:33:33.180Z,70.65
2023-02-04T17:36:01.420Z,70.99
2023-02-04T17:38:28.993Z,71.17
2023-02-04T17:40:56.202Z,70.81
2023-02-04T17:43:23.908Z,71.11
2023-02-04T17:45:51.187Z,71.28
2023-02-04T17:48:18.948Z,71.24
2023-02-04T17:50:45.616Z,70.50
2023-02-04T17:53:12.381Z,70.65
2023-02-04T17:55:39.876Z,71.44
2023-02-04T17:58:24.352Z,71.21
2023-02-04T18:00:53.071Z,70.83
2023-02-04T18:03:23.309Z,71.02
2023-02-04T18:05:51.953Z,70.78
2023-02-04T18:08:21.573Z,70.92
2023-02-04T18:10:51.198Z,71.44
2023-02-04T18:13:23.058Z,71.31
2023-02-04T18:15:58.424Z,71.20
2023-02-04T18:18:28.046Z,71.46
2023-02-04T18:21:12.623Z,71.50
2023-02-04T18:23:39.275Z,70.83
2023-02-04T18:26:23.233Z,71.31
2023-02-04T18:28:50.768Z,70.53
2023-02-04T18:31:46.197Z,71.11
2023-02-04T18:34:21.237Z,71.11
2023-02-04T18:36:48.682Z,71.08
2023-02-04T18:39:35.576Z,70.97
2023-02-04T18:42:02.208Z,70.81
2023-02-04T18:44:35.209Z,70.78
2023-02-04T18:47:32.078Z,71.30
2023-02-04T18:50:00.686Z,70.59
2023-02-04T18:52:27.808Z,70.96
2023-02-04T18:54:56.729Z,70.94
2023-02-04T18:57:29.805Z,70.74
2023-02-04T19:00:13.593Z,70.43
2023-02-04T19:03:22.617Z,70.77
2023-02-04T19:05:49.781Z,71.21
2023-02-04T19:08:23.350Z,70.79
2023-02-04T19:10:51.747Z,70.84
2023-02-04T19:13:27.563Z,70.32
2023-02-04T19:16:00.190Z,70.17
2023-02-04T19:18:37.364Z,70.70
2023-02-04T19:21:17.881Z,70.07
2023-02-04T19:23:44.686Z,70.52
2023-02-04T19:26:35.096Z,70.46
2023-02-04T19:29:28.739Z,70.03
2023-02-04T19:31:59.385Z,70.59
2023-02-04T19:34:32.357Z,70.38
2023-02-04T19:36:59.645Z,70.64
2023-02-04T19:39:39.396Z,70.24
2023-02-04T19:42:28.310Z,70.64
2023-02-04T19:44:58.112Z,70.21
2023-02-04T19:47:24.797Z,70.86
2023-02-04T19:49:57.748Z,69.87
2023-02-04T19:52:33.449Z,70.66
2023-02-04T19:55:18.097Z,70.80
2023-02-04T19:57:48.898Z,70.48
2023-02-04T20:00:33.727Z,70.38
2023-02-04T20:03:01.304Z,70.46
2023-02-04T20:05:32.851Z,70.50
2023-02-04T20:08:24.405Z,70.33
2023-02-04T20:10:51.082Z,70.63
2023-02-04T20:13:20.641Z,70.57
2023-02-04T20:15:47.315Z,71.49
2023-02-04T20:18:20.097Z,71.01
2023-02-04T20:20:47.239Z,71.09
2023-02-04T20:23:25.859Z,70.41
2023-02-04T20:25:53.638Z,70.61
2023-02-04T20:28:36.542Z,71.00
2023-02-04T20:31:23.296Z,70.86
2023-02-04T20:33:59.919Z,70.82
2023-02-04T20:36:26.553Z,71.20
2023-02-04T20:39:36.102Z,71.27
2023-02-04T20:42:23.995Z,71.22
2023-02-04T20:44:50.950Z,71.20
2023-02-04T20:47:20.584Z,71.09
2023-02-04T20:49:56.401Z,71.41
2023-02-04T20:52:41.637Z,70.56
2023-02-04T20:55:31.141Z,71.11
2023-02-04T20:58:12.881Z,71.23
2023-02-04T21:00:40.685Z,71.28
2023-02-04T21:03:13.306Z,71.32
2023-02-04T21:05:40.486Z,71.14
2023-02-04T21:08:33.408Z,70.37
2023-02-04T21:11:00.428Z,71.20
2023-02-04T21:13:27.179Z,70.55
2023-02-04T21:15:54.243Z,71.14
2023-02-04T21:18:21.142Z,71.59
2023-02-04T21:20:47.814Z,70.50
2023-02-04T21:23:14.566Z,70.81
2023-02-04T21:25:41.287Z,71.34
2023-02-04T21:28:08.095Z,70.67
2023-02-04T21:30:34.921Z,71.37
2023-02-04T21:33:02.204Z,71.00
2023-02-04T21:35:29.157Z,71.68
2023-02-04T21:38:00.092Z,71.23
2023-02-04T21:40:27.089Z,71.43
2023-02-04T21:42:54.289Z,70.92
2023-02-04T21:45:22.920Z,70.96
2023-02-04T21:47:50.724Z,71.92
2023-02-04T21:50:19.679Z,71.27
2023-02-04T21:52:46.679Z,70.88
2023-02-04T21:55:15.421Z,71.13
2023-02-04T21:57:42.126Z,71.38
2023-02-04T22:00:09.801Z,72.07
2023-02-04T22:02:36.522Z,71.24
2023-02-04T22:05:07.328Z,71.22
2023-02-04T22:07:35.696Z,71.81
2023-02-04T22:10:03.521Z,72.10
2023-02-04T22:12:30.266Z,71.18
2023-02-04T22:14:57.008Z,71.84
2023-02-04T22:17:23.872Z,71.38
2023-02-04T22:19:50.644Z,71.36
2023-02-04T22:22:18.100Z,72.13
2023-02-04T22:24:45.019Z,72.03
2023-02-04T22:27:12.096Z,71.73
2023-02-04T22:29:38.866Z,71.62
2023-02-04T22:32:05.910Z,71.58
2023-02-04T22:34:32.802Z,71.61
2023-02-04T22:36:59.826Z,71.98
2023-02-04T22:39:26.646Z,71.79
2023-02-04T22:41:53.311Z,71.24
2023-02-04T22:44:20.063Z,71.53
2023-02-04T22:46:47.646Z,71.91
2023-02-04T22:49:14.467Z,70.98
2023-02-04T22:51:41.188Z,71.22
2023-02-04T22:54:07.962Z,72.16
2023-02-04T22:56:35.049Z,71.39
2023-02-04T22:59:01.740Z,71.94
2023-02-04T23:01:28.638Z,71.62
2023-02-04T23:03:55.376Z,71.83
2023-02-04T23:06:22.878Z,71.81
2023-02-04T23:08:50.130Z,71.65
2023-02-04T23:11:18.605Z,71.84
2023-02-04T23:13:46.001Z,72.02
2023-02-04T23:16:12.741Z,72.22
2023-02-04T23:18:39.480Z,72.22
2023-02-04T23:21:06.603Z,72.28
2023-02-04T23:23:33.766Z,71.87
2023-02-04T23:26:03.235Z,72.31
2023-02-04T23:28:30.967Z,72.22
2023-02-04T23:30:57.949Z,72.25
2023-02-04T23:33:24.782Z,71.76
2023-02-04T23:35:51.794Z,72.08
2023-02-04T23:38:18.461Z,71.96
2023-02-04T23:40:45.130Z,71.69
2023-02-04T23:43:11.884Z,71.41
2023-02-04T23:45:39.094Z,71.58
2023-02-04T23:48:06.072Z,71.77
2023-02-04T23:50:32.782Z,72.33
2023-02-04T23:52:59.418Z,72.26
2023-02-04T23:55:26.269Z,71.46
2023-02-04T23:57:53.014Z,71.62
